Time;durP1;ratioP1;P1;durP2;ratioP2;P2;SDS_P1;SDS_P2;PMS_P1;PMS_P2;Temp;Humidity;BMP_temperature;BMP_pressure;BME280_temperature;BME280_humidity;BME280_pressure;Samples;Min_cycle;Max_cycle;Signal;HPM_P1;HPM_P2
2021/07/07 00:01:55;;;;;;;9.93;5.60;;;;;;;20.16;97.02;100117.48;1654258;86;21071;-73
2021/07/07 00:04:22;;;;;;;8.93;5.80;;;;;;;20.17;96.71;100113.83;1654421;86;21575;-73
2021/07/07 00:06:49;;;;;;;9.20;5.00;;;;;;;20.19;96.56;100123.92;1635636;87;21653;-73
2021/07/07 00:09:16;;;;;;;8.68;7.47;;;;;;;20.20;96.29;100124.30;1635399;87;21089;-73
2021/07/07 00:11:43;;;;;;;7.60;6.15;;;;;;;20.21;96.19;100125.16;1635611;87;21058;-74
2021/07/07 00:14:09;;;;;;;9.00;6.03;;;;;;;20.21;95.92;100123.32;1635864;87;21113;-73
2021/07/07 00:16:36;;;;;;;8.43;6.70;;;;;;;20.19;95.83;100123.92;1635436;87;21164;-73
2021/07/07 00:19:03;;;;;;;13.40;6.15;;;;;;;20.19;95.79;100131.94;1635527;87;21248;-73
2021/07/07 00:21:30;;;;;;;10.43;6.50;;;;;;;20.18;95.67;100130.75;1635472;87;21534;-73
2021/07/07 00:23:56;;;;;;;10.40;6.53;;;;;;;20.18;96.00;100128.92;1611311;87;22297;-73
2021/07/07 00:26:23;;;;;;;11.50;6.85;;;;;;;20.15;96.26;100133.14;1635194;87;21134;-72
2021/07/07 00:28:51;;;;;;;10.98;6.35;;;;;;;20.12;96.41;100125.37;1635235;86;21167;-71
2021/07/07 00:31:18;;;;;;;11.90;6.42;;;;;;;20.12;96.63;100132.05;1635176;87;21095;-71
2021/07/07 00:33:44;;;;;;;9.65;6.85;;;;;;;20.11;96.66;100129.02;1635130;86;21102;-70
2021/07/07 00:36:10;;;;;;;8.88;6.83;;;;;;;20.11;96.60;100130.36;1635354;87;21547;-71
2021/07/07 00:38:38;;;;;;;10.75;6.58;;;;;;;20.11;96.68;100129.02;1635444;87;21055;-70
2021/07/07 00:41:04;;;;;;;12.65;6.72;;;;;;;20.11;96.72;100129.02;1635282;86;22253;-71
2021/07/07 00:43:31;;;;;;;9.50;6.30;;;;;;;20.10;96.32;100129.98;1635652;87;21109;-70
2021/07/07 00:45:57;;;;;;;10.58;6.42;;;;;;;20.08;96.15;100130.12;1657093;86;21626;-71
2021/07/07 00:48:24;;;;;;;8.65;5.87;;;;;;;20.12;96.36;100130.72;1657163;86;21053;-70
2021/07/07 00:50:52;;;;;;;12.35;6.25;;;;;;;20.12;95.81;100131.56;1657419;86;21055;-71
2021/07/07 00:53:18;;;;;;;10.45;7.08;;;;;;;20.13;96.02;100132.44;1657299;86;21509;-71
2021/07/07 00:55:45;;;;;;;11.12;6.22;;;;;;;20.12;96.41;100136.06;1656584;86;21108;-71
2021/07/07 00:58:12;;;;;;;9.78;6.83;;;;;;;20.09;96.38;100133.63;1655651;85;21140;-71
2021/07/07 01:00:39;;;;;;;11.22;6.37;;;;;;;20.07;96.20;100135.56;1655804;85;21106;-70
2021/07/07 01:03:06;;;;;;;8.08;6.17;;;;;;;20.05;96.17;100134.83;1655701;86;21113;-72
2021/07/07 01:05:34;;;;;;;9.88;6.50;;;;;;;20.03;96.19;100131.42;1655642;86;21529;-72
2021/07/07 01:08:01;;;;;;;11.35;5.70;;;;;;;20.03;96.30;100139.44;1655274;86;21682;-72
2021/07/07 01:10:28;;;;;;;11.63;7.12;;;;;;;20.01;95.30;100136.03;1655685;86;21598;-72
2021/07/07 01:12:56;;;;;;;11.20;7.60;;;;;;;20.01;95.35;100144.05;1655576;86;21052;-72
2021/07/07 01:15:23;;;;;;;15.63;7.20;;;;;;;19.98;96.12;100140.28;1655862;86;21077;-72
2021/07/07 01:17:51;;;;;;;11.83;6.50;;;;;;;19.96;96.46;100143.55;1655617;86;21104;-73
2021/07/07 01:20:22;;;;;;;8.70;7.10;;;;;;;19.93;96.63;100141.13;1655658;86;21063;-73
2021/07/07 01:22:49;;;;;;;14.15;7.10;;;;;;;19.87;96.89;100139.26;1655822;86;21052;-72
2021/07/07 01:25:16;;;;;;;9.63;7.35;;;;;;;19.82;96.79;100142.77;1655623;86;21075;-71
2021/07/07 01:27:43;;;;;;;10.85;6.92;;;;;;;19.76;96.95;100143.25;1655719;85;21140;-71
2021/07/07 01:30:15;;;;;;;10.68;6.78;;;;;;;19.69;96.94;100145.53;1655670;86;21508;-70
2021/07/07 01:32:42;;;;;;;6.75;5.60;;;;;;;19.61;97.54;100149.70;1655358;85;21033;-72
2021/07/07 01:35:12;;;;;;;16.57;6.85;;;;;;;19.53;98.00;100145.40;1655511;86;21552;-74
2021/07/07 01:37:39;;;;;;;7.53;6.10;;;;;;;19.46;98.08;100155.22;1655719;86;21084;-72
2021/07/07 01:40:09;;;;;;;13.68;6.40;;;;;;;19.39;98.38;100157.94;1655500;85;21084;-73
2021/07/07 01:42:35;;;;;;;6.83;5.28;;;;;;;19.33;98.44;100158.41;1654283;86;21110;-72
2021/07/07 01:45:04;;;;;;;14.30;6.28;;;;;;;19.26;98.78;100153.16;1633728;87;21101;-72
2021/07/07 01:47:31;;;;;;;10.48;7.00;;;;;;;19.21;98.64;100156.62;1633992;87;21077;-72
2021/07/07 01:50:00;;;;;;;13.45;7.97;;;;;;;19.17;98.83;100155.16;1633784;87;21097;-73
2021/07/07 01:52:27;;;;;;;9.85;7.28;;;;;;;19.13;99.22;100163.02;1633814;87;21691;-74
2021/07/07 01:54:53;;;;;;;8.40;6.87;;;;;;;19.09;99.49;100170.38;1633808;87;21611;-74
2021/07/07 01:57:20;;;;;;;12.40;7.12;;;;;;;19.05;99.64;100164.42;1633955;86;21635;-72
2021/07/07 01:59:47;;;;;;;11.50;7.05;;;;;;;19.00;99.82;100162.56;1635011;87;21633;-74
2021/07/07 02:02:13;;;;;;;10.00;7.50;;;;;;;18.97;100.00;100172.11;1635183;87;21110;-72
2021/07/07 02:07:35;;;;;;;13.22;7.40;;;;;;;18.88;100.00;100169.25;1850728;77;22771;-73
2021/07/07 02:10:06;;;;;;;11.38;7.75;;;;;;;18.78;100.00;100174.39;1822863;78;21985;-75
2021/07/07 02:12:33;;;;;;;15.05;8.68;;;;;;;18.75;100.00;100179.89;1821675;78;21203;-75
2021/07/07 02:15:00;;;;;;;9.85;7.60;;;;;;;18.71;100.00;100183.76;1823273;78;21722;-76
2021/07/07 02:17:27;;;;;;;13.88;7.55;;;;;;;18.65;100.00;100183.20;1823178;78;21029;-74
2021/07/07 02:19:54;;;;;;;10.53;5.30;;;;;;;18.62;100.00;100186.09;1822977;78;21086;-75
2021/07/07 02:22:21;;;;;;;9.45;6.10;;;;;;;18.61;100.00;100191.52;1822779;78;21008;-72
2021/07/07 02:24:47;;;;;;;10.63;6.85;;;;;;;18.57;100.00;100193.56;1822735;78;21170;-75
2021/07/07 02:27:15;;;;;;;14.15;7.20;;;;;;;18.55;100.00;100192.81;1802090;78;21526;-75
2021/07/07 02:29:42;;;;;;;11.53;6.70;;;;;;;18.56;100.00;100198.51;1790596;80;22141;-73
2021/07/07 02:32:08;;;;;;;12.18;7.65;;;;;;;18.54;100.00;100197.79;1790344;79;21096;-74
2021/07/07 02:34:35;;;;;;;15.03;7.08;;;;;;;18.56;100.00;100195.84;1790365;80;21032;-74
2021/07/07 02:37:02;;;;;;;11.25;7.33;;;;;;;18.57;100.00;100202.05;1790682;80;21129;-74
2021/07/07 02:39:29;;;;;;;16.15;6.97;;;;;;;18.60;100.00;100204.02;1790457;80;21067;-73
2021/07/07 02:41:56;;;;;;;11.15;6.55;;;;;;;18.61;100.00;100200.86;1790768;80;21064;-72
2021/07/07 02:44:22;;;;;;;10.68;7.10;;;;;;;18.64;100.00;100201.52;1790870;80;21068;-73
2021/07/07 02:46:48;;;;;;;8.93;7.10;;;;;;;18.69;100.00;100207.02;1790678;80;21044;-72
2021/07/07 02:49:17;;;;;;;13.30;7.62;;;;;;;18.72;100.00;100207.64;1790833;80;21084;-72
2021/07/07 02:51:45;;;;;;;14.43;7.70;;;;;;;18.76;100.00;100209.63;1790581;80;21658;-74
2021/07/07 02:54:11;;;;;;;13.13;6.42;;;;;;;18.81;100.00;100215.52;1791209;80;21523;-75
2021/07/07 02:56:38;;;;;;;12.80;5.75;;;;;;;18.84;100.00;100208.62;1790450;80;21318;-75
2021/07/07 02:59:06;;;;;;;10.40;5.60;;;;;;;18.90;100.00;100218.88;1790586;80;21056;-75
2021/07/07 03:01:33;;;;;;;12.40;5.72;;;;;;;18.97;100.00;100214.80;1789281;80;21130;-74
2021/07/07 03:04:00;;;;;;;8.98;5.28;;;;;;;19.05;100.00;100219.13;1790832;80;21688;-75
2021/07/07 03:06:27;;;;;;;10.10;4.65;;;;;;;19.14;100.00;100222.09;1786334;80;21495;-73
2021/07/07 03:08:53;;;;;;;5.55;4.20;;;;;;;19.20;99.95;100219.00;1779981;80;21629;-74
2021/07/07 03:11:20;;;;;;;7.83;4.17;;;;;;;19.27;98.93;100221.59;1779900;80;21537;-74
2021/07/07 03:13:48;;;;;;;9.83;5.97;;;;;;;19.37;98.47;100224.45;1779822;80;21515;-75
2021/07/07 03:16:14;;;;;;;8.18;5.47;;;;;;;19.46;98.09;100226.45;1779723;80;21064;-74
2021/07/07 03:18:42;;;;;;;12.30;7.15;;;;;;;19.54;97.62;100235.27;1779703;80;21551;-72
2021/07/07 03:21:11;;;;;;;16.70;7.58;;;;;;;19.61;97.40;100235.19;1779362;80;21017;-73
2021/07/07 03:23:38;;;;;;;10.65;7.22;;;;;;;19.69;97.14;100239.50;1779297;80;21731;-74
2021/07/07 03:26:04;;;;;;;11.33;7.70;;;;;;;19.77;97.47;100238.47;1779018;80;21108;-73
2021/07/07 03:28:31;;;;;;;17.35;7.70;;;;;;;19.89;97.46;100237.55;1779845;80;21069;-76
2021/07/07 03:30:57;;;;;;;10.68;7.28;;;;;;;20.06;96.88;100242.11;1779313;80;21061;-77
2021/07/07 03:33:24;;;;;;;11.30;7.95;;;;;;;20.22;95.77;100237.34;1779312;80;21744;-76
2021/07/07 03:35:51;;;;;;;15.53;7.50;;;;;;;20.41;94.27;100245.31;1779124;80;21131;-74
2021/07/07 03:38:17;;;;;;;14.93;7.33;;;;;;;20.59;92.70;100239.04;1779390;80;21441;-73
2021/07/07 03:40:45;;;;;;;14.18;6.70;;;;;;;20.72;91.55;100243.32;1778929;80;21068;-74
2021/07/07 03:43:12;;;;;;;9.90;6.78;;;;;;;20.81;90.36;100242.25;1779562;80;21068;-74
2021/07/07 03:45:39;;;;;;;16.00;7.10;;;;;;;20.85;89.34;100245.06;1779357;80;21069;-75
2021/07/07 03:48:08;;;;;;;9.25;7.05;;;;;;;20.87;88.72;100249.81;1779800;80;21021;-78
2021/07/07 03:50:35;;;;;;;15.10;7.20;;;;;;;20.86;87.84;100250.27;1776802;80;21131;-76
2021/07/07 03:53:04;;;;;;;10.70;7.35;;;;;;;20.84;87.65;100247.36;1778753;80;21078;-71
2021/07/07 03:55:32;;;;;;;12.05;8.28;;;;;;;20.72;87.57;100247.34;1778856;79;21155;-74
2021/07/07 03:58:01;;;;;;;12.13;7.45;;;;;;;20.71;87.42;100256.34;1772276;80;21641;-73
2021/07/07 04:00:28;;;;;;;12.55;7.10;;;;;;;20.62;87.56;100251.70;1778401;80;21737;-73
2021/07/07 04:02:56;;;;;;;10.38;7.75;;;;;;;20.57;88.04;100243.19;1775884;80;21046;-72
2021/07/07 04:05:23;;;;;;;11.12;7.87;;;;;;;20.61;88.50;100252.66;1770994;80;21152;-72
2021/07/07 04:07:49;;;;;;;13.18;8.18;;;;;;;20.61;89.40;100257.17;1766246;80;21072;-73
2021/07/07 04:10:19;;;;;;;13.00;7.47;;;;;;;20.64;90.00;100255.13;1771932;80;21075;-72
2021/07/07 04:12:48;;;;;;;14.53;8.13;;;;;;;20.69;89.87;100262.80;1782669;80;21092;-72
2021/07/07 04:15:16;;;;;;;10.03;7.92;;;;;;;20.74;89.25;100256.59;1742810;82;21308;-74
2021/07/07 04:17:44;;;;;;;9.73;7.83;;;;;;;20.84;89.17;100267.43;1718340;83;21163;-73
2021/07/07 04:20:12;;;;;;;10.00;7.40;;;;;;;20.92;88.73;100265.02;1715835;83;21078;-73
2021/07/07 04:22:51;;;;;;;11.93;7.45;;;;;;;21.00;89.12;100270.61;1716826;83;21076;-72
2021/07/07 04:25:18;;;;;;;10.15;7.35;;;;;;;21.08;89.16;100268.20;1784451;80;21624;-72
2021/07/07 04:27:47;;;;;;;13.10;7.62;;;;;;;21.15;88.34;100269.41;1784808;80;21133;-74
2021/07/07 04:30:16;;;;;;;13.88;7.12;;;;;;;21.21;87.34;100269.43;1784572;80;21502;-73
2021/07/07 04:32:43;;;;;;;14.18;6.85;;;;;;;21.26;86.96;100271.74;1784068;80;21046;-73
2021/07/07 04:35:11;;;;;;;12.58;6.85;;;;;;;21.35;86.85;100268.33;1777651;79;21049;-73
2021/07/07 04:37:38;;;;;;;8.58;7.35;;;;;;;21.49;86.28;100264.58;1773811;80;21239;-72
2021/07/07 04:40:07;;;;;;;14.58;7.17;;;;;;;21.56;85.53;100266.63;1781410;80;21030;-72
2021/07/07 04:42:33;;;;;;;8.60;6.85;;;;;;;21.65;84.62;100266.38;1783502;80;21368;-72
2021/07/07 04:45:00;;;;;;;10.72;6.87;;;;;;;21.74;84.20;100272.79;1783563;80;21607;-72
2021/07/07 04:47:28;;;;;;;16.67;6.92;;;;;;;21.78;82.80;100268.89;1784375;80;21062;-73
2021/07/07 04:49:55;;;;;;;11.65;6.87;;;;;;;21.85;82.14;100274.11;1784413;80;21040;-73
2021/07/07 04:52:23;;;;;;;10.60;6.25;;;;;;;21.90;81.05;100277.29;1784275;80;21125;-72
2021/07/07 04:54:50;;;;;;;11.73;6.70;;;;;;;21.95;79.12;100280.44;1774969;79;21108;-76
2021/07/07 04:57:18;;;;;;;10.60;6.97;;;;;;;21.99;78.40;100279.21;1782043;80;21026;-73
2021/07/07 04:59:45;;;;;;;12.90;7.05;;;;;;;22.06;78.40;100278.69;1775758;80;21046;-74
2021/07/07 05:02:12;;;;;;;9.85;6.92;;;;;;;22.12;78.66;100284.89;1784330;80;21577;-75
2021/07/07 05:04:38;;;;;;;12.93;7.30;;;;;;;22.19;78.52;100285.58;1781600;80;21989;-76
2021/07/07 05:07:06;;;;;;;9.88;7.42;;;;;;;22.29;77.88;100293.77;1780620;79;21026;-76
2021/07/07 05:09:34;;;;;;;7.65;6.08;;;;;;;22.38;77.65;100287.63;1762706;80;21078;-77
2021/07/07 05:12:01;;;;;;;11.40;6.42;;;;;;;22.49;78.59;100288.55;1806147;78;21044;-76
2021/07/07 05:14:28;;;;;;;9.80;5.83;;;;;;;22.65;73.68;100297.00;1786214;79;21068;-75
2021/07/07 05:16:57;;;;;;;10.28;5.67;;;;;;;22.79;72.96;100293.98;1796846;79;22152;-76
2021/07/07 05:19:24;;;;;;;8.78;5.45;;;;;;;23.09;67.76;100292.34;1789674;79;21088;-77
2021/07/07 05:21:50;;;;;;;7.55;5.87;;;;;;;23.44;66.66;100296.46;1785160;79;21084;-75
2021/07/07 05:24:18;;;;;;;9.30;5.78;;;;;;;23.93;66.90;100300.19;1788390;79;21082;-74
2021/07/07 05:26:45;;;;;;;7.62;4.70;;;;;;;24.27;64.40;100306.03;1785101;79;21627;-76
2021/07/07 05:29:16;;;;;;;10.98;5.53;;;;;;;24.49;61.73;100304.92;1779745;79;21111;-76
2021/07/07 05:31:43;;;;;;;9.98;6.85;;;;;;;24.60;59.98;100307.97;1756137;80;21766;-76
2021/07/07 05:34:12;;;;;;;9.38;4.50;;;;;;;24.66;59.75;100309.22;1786005;80;21111;-75
2021/07/07 05:36:38;;;;;;;12.13;4.30;;;;;;;24.62;52.83;100307.33;1785891;79;21076;-77
2021/07/07 05:39:05;;;;;;;11.85;4.83;;;;;;;24.56;48.12;100308.39;1786677;80;21548;-76
2021/07/07 05:41:31;;;;;;;19.67;5.55;;;;;;;24.53;52.04;100309.53;1786420;80;21795;-76
2021/07/07 05:43:58;;;;;;;19.07;4.80;;;;;;;24.56;50.16;100309.74;1787249;80;21070;-76
2021/07/07 05:46:25;;;;;;;18.32;6.25;;;;;;;24.70;51.67;100314.17;1787269;80;21085;-75
2021/07/07 05:48:51;;;;;;;19.23;5.90;;;;;;;24.83;51.18;100317.93;1787478;80;21074;-76
2021/07/07 05:51:18;;;;;;;16.50;5.50;;;;;;;25.12;52.52;100320.56;1789045;79;21080;-76
2021/07/07 05:53:44;;;;;;;15.75;5.85;;;;;;;25.29;52.67;100320.83;1792262;79;21574;-76
2021/07/07 05:56:13;;;;;;;24.63;7.12;;;;;;;25.49;53.37;100321.58;1796154;79;21009;-75
2021/07/07 05:58:40;;;;;;;21.02;7.08;;;;;;;25.69;52.19;100326.39;1795836;79;21087;-75
2021/07/07 06:01:06;;;;;;;12.90;5.97;;;;;;;25.96;52.02;100328.27;1795688;79;21129;-73
2021/07/07 06:03:33;;;;;;;33.98;7.03;;;;;;;26.27;52.75;100331.95;1789434;79;21080;-76
2021/07/07 06:06:00;;;;;;;30.70;7.08;;;;;;;26.46;49.76;100323.72;1798523;79;21515;-74
2021/07/07 06:08:26;;;;;;;13.88;6.10;;;;;;;26.43;50.58;100332.11;1799232;78;21056;-75
2021/07/07 06:10:54;;;;;;;23.45;6.40;;;;;;;26.45;51.84;100334.66;1805018;78;21119;-75
2021/07/07 06:13:20;;;;;;;16.52;5.72;;;;;;;26.49;50.02;100332.84;1803513;78;21063;-74
2021/07/07 06:15:47;;;;;;;17.70;5.58;;;;;;;26.34;47.57;100330.33;1805396;78;21041;-76
2021/07/07 06:18:14;;;;;;;14.03;5.30;;;;;;;26.09;49.47;100336.85;1798147;79;21171;-75
2021/07/07 06:20:41;;;;;;;17.17;6.80;;;;;;;26.00;49.75;100337.77;1808278;78;21050;-74
2021/07/07 06:23:08;;;;;;;22.37;6.62;;;;;;;26.22;51.08;100345.06;1806569;79;21092;-75
2021/07/07 06:25:35;;;;;;;19.37;5.55;;;;;;;26.53;48.56;100332.05;1796531;79;21048;-75
2021/07/07 06:28:03;;;;;;;10.55;4.05;;;;;;;26.84;47.36;100332.48;1796244;79;21067;-75
2021/07/07 06:30:30;;;;;;;23.18;6.60;;;;;;;27.17;43.99;100334.06;1795205;79;21132;-75
2021/07/07 06:33:01;;;;;;;10.93;4.33;;;;;;;27.53;45.65;100333.97;1794641;78;21624;-76
2021/07/07 06:35:30;;;;;;;10.03;4.45;;;;;;;27.99;42.50;100335.34;1786549;79;21044;-74
2021/07/07 06:37:57;;;;;;;18.27;5.28;;;;;;;28.35;44.80;100331.55;1775107;79;21719;-73
2021/07/07 06:40:29;;;;;;;11.08;3.58;;;;;;;28.65;43.33;100334.13;1751820;81;21070;-75
2021/07/07 06:42:56;;;;;;;13.83;4.00;;;;;;;28.63;41.37;100341.06;1721875;81;21155;-75
2021/07/07 06:45:24;;;;;;;8.75;4.00;;;;;;;28.57;42.29;100343.09;1724700;81;21036;-74
2021/07/07 06:47:51;;;;;;;9.85;4.33;;;;;;;28.45;42.56;100343.05;1742752;81;21051;-74
2021/07/07 06:50:18;;;;;;;13.50;3.75;;;;;;;28.48;42.48;100344.09;1747435;81;21073;-72
2021/07/07 06:52:45;;;;;;;10.48;3.80;;;;;;;28.52;40.78;100350.88;1751348;80;21033;-74
2021/07/07 06:55:13;;;;;;;7.87;3.60;;;;;;;28.56;41.07;100347.34;1719960;82;21485;-73
2021/07/07 06:57:39;;;;;;;7.53;3.50;;;;;;;28.65;41.41;100343.11;1732844;82;21076;-74
2021/07/07 07:00:11;;;;;;;6.65;3.35;;;;;;;28.69;40.20;100348.17;1743850;80;21289;-74
2021/07/07 07:02:40;;;;;;;4.75;2.83;;;;;;;28.78;40.22;100353.45;1745313;80;21232;-76
2021/07/07 07:05:11;;;;;;;7.87;3.60;;;;;;;28.91;39.89;100350.20;1731380;82;21148;-74
2021/07/07 07:07:38;;;;;;;11.57;3.92;;;;;;;29.03;40.30;100352.92;1752228;81;21252;-75
2021/07/07 07:10:06;;;;;;;9.18;3.70;;;;;;;29.31;39.65;100343.56;1744935;81;22317;-73
2021/07/07 07:12:35;;;;;;;10.60;3.33;;;;;;;29.43;38.97;100351.17;1747003;81;21042;-74
2021/07/07 07:15:06;;;;;;;11.70;3.70;;;;;;;29.37;40.24;100342.36;1754770;81;21069;-73
2021/07/07 07:17:37;;;;;;;19.17;4.03;;;;;;;29.42;39.84;100333.18;1744180;81;21656;-72
2021/07/07 07:20:09;;;;;;;8.85;4.05;;;;;;;29.42;39.44;100337.77;1716382;82;21887;-73
2021/07/07 07:22:40;;;;;;;12.53;4.28;;;;;;;29.47;39.68;100343.02;1742123;81;21108;-75
2021/07/07 07:25:08;;;;;;;5.22;2.90;;;;;;;29.57;39.77;100348.23;1743238;81;21048;-74
2021/07/07 07:27:35;;;;;;;8.05;3.00;;;;;;;29.75;38.47;100345.32;1718807;83;21584;-74
2021/07/07 07:30:05;;;;;;;11.28;3.40;;;;;;;30.02;38.74;100340.42;1788047;79;21034;-74
2021/07/07 07:32:34;;;;;;;6.40;3.30;;;;;;;30.35;38.33;100340.27;1782738;79;21112;-76
2021/07/07 07:35:01;;;;;;;6.42;2.85;;;;;;;30.58;37.95;100346.55;1770351;80;21046;-74
2021/07/07 07:37:48;;;;;;;7.60;3.05;;;;;;;30.65;37.70;100350.22;1781916;79;21051;-73
2021/07/07 07:40:12;;;;;;;10.53;3.50;;;;;;;30.73;36.98;100339.26;1771508;79;21057;-74
2021/07/07 07:42:42;;;;;;;;;;;;;;;30.60;36.80;100347.20;1787823;79;21355;-74
2021/07/07 07:45:11;;;;;;;9.75;3.20;;;;;;;30.36;38.31;100350.09;1785071;79;21539;-74
2021/07/07 07:47:40;;;;;;;7.78;3.08;;;;;;;30.39;38.41;100347.01;1784131;79;21052;-75
2021/07/07 07:50:11;;;;;;;3.87;2.60;;;;;;;30.59;37.64;100350.09;1790598;79;21005;-73
2021/07/07 07:52:41;;;;;;;6.70;2.77;;;;;;;30.56;37.77;100355.91;1786896;79;21072;-74
2021/07/07 07:55:09;;;;;;;6.37;2.80;;;;;;;30.67;38.58;100352.24;1791403;79;22135;-72
2021/07/07 07:57:37;;;;;;;5.22;2.98;;;;;;;31.01;37.89;100344.14;1780208;79;21804;-73
2021/07/07 08:00:09;;;;;;;4.95;2.85;;;;;;;31.32;37.31;100343.16;1755235;79;21112;-74
2021/07/07 08:02:39;;;;;;;8.30;2.98;;;;;;;31.56;36.89;100352.44;1783805;79;21078;-76
2021/07/07 08:05:08;;;;;;;5.42;3.12;;;;;;;31.58;35.61;100350.03;1777878;79;21119;-74
2021/07/07 08:07:37;;;;;;;9.53;3.02;;;;;;;31.62;35.82;100355.44;1784858;79;21046;-76
2021/07/07 08:10:07;;;;;;;9.73;2.92;;;;;;;31.65;35.85;100355.05;1768897;79;21120;-74
2021/07/07 08:12:34;;;;;;;12.10;3.12;;;;;;;31.40;34.66;100355.81;1766626;79;21049;-76
2021/07/07 08:15:05;;;;;;;6.42;3.10;;;;;;;31.12;35.70;100354.56;1730121;81;21093;-76
2021/07/07 08:17:33;;;;;;;;;;;;;;;30.98;36.95;100347.23;1712679;82;21088;-74
2021/07/07 08:20:00;;;;;;;11.60;3.15;;;;;;;31.05;36.20;100348.18;1707252;83;20449;-74
2021/07/07 08:22:27;;;;;;;6.80;3.00;;;;;;;31.02;35.18;100366.23;1711529;82;22100;-75
2021/07/07 08:24:54;;;;;;;9.58;3.65;;;;;;;30.72;36.06;100362.56;1748038;81;21160;-75
2021/07/07 08:27:21;;;;;;;5.67;3.00;;;;;;;30.58;36.54;100365.56;1736715;81;21125;-75
2021/07/07 08:29:48;;;;;;;7.92;3.17;;;;;;;30.67;35.67;100365.00;1773050;79;21120;-75
2021/07/07 08:32:15;;;;;;;15.88;3.02;;;;;;;30.61;35.92;100365.19;1779464;79;21069;-74
2021/07/07 08:34:42;;;;;;;5.83;2.67;;;;;;;30.39;36.42;100364.67;1758028;79;21521;-76
2021/07/07 08:37:13;;;;;;;6.60;2.90;;;;;;;30.19;36.86;100375.98;1780506;79;21646;-75
2021/07/07 08:39:40;;;;;;;8.83;3.15;;;;;;;30.03;36.80;100382.34;1778132;79;21525;-74
2021/07/07 08:42:07;;;;;;;13.38;2.90;;;;;;;29.97;36.85;100379.48;1779850;79;21054;-75
2021/07/07 08:44:34;;;;;;;11.43;3.27;;;;;;;29.88;37.32;100371.36;1778757;79;21159;-76
2021/07/07 08:47:02;;;;;;;6.37;3.10;;;;;;;30.13;36.96;100378.56;1774429;79;21531;-75
2021/07/07 08:49:30;;;;;;;6.28;2.83;;;;;;;30.41;36.28;100376.20;1753734;79;21015;-74
2021/07/07 08:51:57;;;;;;;5.50;2.72;;;;;;;30.63;36.03;100379.45;1774138;79;21039;-74
2021/07/07 08:54:24;;;;;;;8.80;3.35;;;;;;;30.77;35.71;100374.25;1793155;79;21141;-75
2021/07/07 08:56:52;;;;;;;8.33;3.02;;;;;;;30.87;35.56;100367.55;1765369;79;21037;-73
2021/07/07 08:59:20;;;;;;;9.08;3.08;;;;;;;31.14;35.29;100371.55;1760514;79;21611;-76
2021/07/07 09:02:05;;;;;;;6.20;3.15;;;;;;;30.98;34.88;100377.67;1798042;79;21096;-73
2021/07/07 09:04:37;;;;;;;7.67;3.12;;;;;;;30.98;34.88;100377.67;1783562;79;21080;-75
2021/07/07 09:07:07;;;;;;;8.28;3.00;;;;;;;31.00;34.86;100372.37;1795106;78;21046;-74
2021/07/07 09:09:43;;;;;;;8.35;2.83;;;;;;;31.20;34.42;100375.91;1776190;80;21586;-74
2021/07/07 09:12:22;;;;;;;4.80;2.85;;;;;;;31.44;34.52;100371.61;1780584;80;20982;-75
2021/07/07 09:15:03;;;;;;;4.00;2.55;;;;;;;31.94;33.12;100376.80;1774812;80;21120;-74
2021/07/07 09:17:38;;;;;;;7.33;2.87;;;;;;;32.30;32.54;100379.22;1774653;80;21102;-72
2021/07/07 09:20:21;;;;;;;7.65;2.90;;;;;;;32.33;32.54;100376.97;1769112;80;21108;-75
2021/07/07 09:22:50;;;;;;;9.53;3.25;;;;;;;31.84;32.85;100380.34;1769957;80;21905;-74
2021/07/07 09:25:28;;;;;;;5.72;2.80;;;;;;;31.50;33.39;100385.84;1770411;80;21555;-74
2021/07/07 09:27:55;;;;;;;6.20;2.90;;;;;;;31.24;34.08;100392.20;1768637;80;21044;-74
2021/07/07 09:30:22;;;;;;;9.05;2.70;;;;;;;30.96;35.49;100387.88;1772367;80;21126;-74
2021/07/07 09:32:52;;;;;;;6.70;2.58;;;;;;;30.89;35.60;100392.69;1770986;80;20987;-74
2021/07/07 09:35:20;;;;;;;4.80;2.22;;;;;;;30.91;35.83;100393.88;1776948;80;21044;-74
2021/07/07 09:37:53;;;;;;;5.87;2.45;;;;;;;30.88;34.44;100388.81;1774941;80;22187;-74
2021/07/07 09:40:18;;;;;;;5.08;2.62;;;;;;;30.86;34.01;100397.66;1774417;80;21009;-73
2021/07/07 09:42:47;;;;;;;7.67;2.70;;;;;;;30.83;33.39;100397.97;1772626;80;21625;-73
2021/07/07 09:45:18;;;;;;;5.58;2.62;;;;;;;30.85;32.96;100401.39;1772104;80;21006;-74
2021/07/07 09:47:47;;;;;;;7.70;2.27;;;;;;;30.94;33.30;100396.21;1768752;80;21512;-73
2021/07/07 09:50:15;;;;;;;7.50;2.50;;;;;;;31.13;32.28;100391.64;1772079;80;21791;-74
2021/07/07 09:52:42;;;;;;;6.15;2.30;;;;;;;31.31;32.57;100390.42;1773381;80;21010;-74
2021/07/07 09:55:10;;;;;;;6.40;2.27;;;;;;;31.47;30.98;100394.39;1753248;80;21080;-75
2021/07/07 09:57:46;;;;;;;6.40;2.35;;;;;;;31.71;29.97;100392.42;1759600;80;21105;-74
2021/07/07 10:00:21;;;;;;;5.15;2.02;;;;;;;31.84;29.59;100403.98;1764099;80;21047;-75
2021/07/07 10:02:50;;;;;;;6.95;1.82;;;;;;;31.94;29.83;100405.39;1768051;80;21726;-75
2021/07/07 10:05:18;;;;;;;7.00;2.08;;;;;;;32.03;28.25;100405.34;1767651;80;21653;-74
2021/07/07 10:07:46;;;;;;;6.80;2.67;;;;;;;32.09;29.27;100413.56;1766960;80;21097;-75
2021/07/07 10:10:14;;;;;;;4.72;1.90;;;;;;;32.28;29.50;100414.86;1769704;79;21583;-75
2021/07/07 10:12:44;;;;;;;6.22;1.95;;;;;;;32.48;28.01;100410.14;1759772;79;21045;-75
2021/07/07 10:15:15;;;;;;;8.03;1.90;;;;;;;32.61;27.94;100414.41;1772442;79;21785;-74
2021/07/07 10:17:43;;;;;;;7.90;2.20;;;;;;;32.57;27.39;100414.46;1741795;81;21109;-75
2021/07/07 10:20:13;;;;;;;2.45;1.80;;;;;;;32.47;27.92;100419.36;1723587;81;21017;-75
2021/07/07 10:22:40;;;;;;;4.85;1.70;;;;;;;32.48;28.73;100416.95;1727021;81;22265;-74
2021/07/07 10:25:10;;;;;;;5.75;2.10;;;;;;;32.72;28.86;100418.51;1728109;81;21095;-74
2021/07/07 10:27:37;;;;;;;;;;;;;;;33.00;28.41;100423.48;1728348;81;21472;-75
2021/07/07 10:30:06;;;;;;;10.10;2.33;;;;;;;32.94;28.02;100413.87;1713113;82;20222;-74
2021/07/07 10:32:33;;;;;;;11.57;2.17;;;;;;;32.77;28.55;100419.59;1711325;82;21084;-75
2021/07/07 10:35:07;;;;;;;8.38;2.27;;;;;;;32.62;28.36;100416.61;1777722;79;21046;-76
2021/07/07 10:37:35;;;;;;;9.15;2.02;;;;;;;32.44;29.23;100426.55;1791691;79;21066;-75
2021/07/07 10:40:28;;;;;;;7.42;2.12;;;;;;;32.31;28.90;100423.17;1797054;79;21188;-74
2021/07/07 10:42:55;;;;;;;12.13;2.33;;;;;;;32.24;29.17;100412.71;1787586;79;21490;-74
2021/07/07 10:45:37;;;;;;;7.45;1.82;;;;;;;32.31;28.89;100430.81;1786087;79;21113;-75
2021/07/07 10:48:31;;;;;;;6.55;2.25;;;;;;;32.14;29.07;100423.89;1772089;79;21631;-75
2021/07/07 10:51:12;;;;;;;6.10;1.90;;;;;;;32.15;29.75;100422.34;1774865;79;21660;-76
2021/07/07 10:53:39;;;;;;;13.18;1.90;;;;;;;32.44;28.87;100432.00;1749926;79;21286;-76
2021/07/07 10:56:10;;;;;;;5.83;2.00;;;;;;;32.31;28.17;100434.91;1783727;79;20992;-75
2021/07/07 10:58:44;;;;;;;5.20;1.98;;;;;;;31.93;28.80;100426.87;1776153;80;21079;-75
2021/07/07 11:01:37;;;;;;;6.75;1.72;;;;;;;31.69;29.21;100433.95;1778437;79;21109;-74
2021/07/07 11:04:06;;;;;;;5.58;1.82;;;;;;;31.75;29.49;100429.97;1738128;80;21536;-74
2021/07/07 11:06:38;;;;;;;8.83;2.15;;;;;;;31.72;28.86;100425.40;1770417;79;21462;-73
2021/07/07 11:09:15;;;;;;;6.53;1.77;;;;;;;31.70;28.73;100426.10;1771474;79;21070;-76
2021/07/07 11:11:48;;;;;;;7.30;2.00;;;;;;;31.76;28.16;100434.89;1767100;79;21750;-74
2021/07/07 11:14:29;;;;;;;8.18;2.35;;;;;;;31.90;27.64;100431.31;1760385;79;21146;-76
2021/07/07 11:17:01;;;;;;;8.78;1.92;;;;;;;31.91;28.64;100435.74;1770270;79;21081;-75
2021/07/07 11:19:42;;;;;;;17.27;2.85;;;;;;;31.74;28.74;100428.78;1781271;79;21154;-75
2021/07/07 11:22:10;;;;;;;5.33;1.92;;;;;;;31.67;29.69;100430.57;1773748;79;21121;-75
2021/07/07 11:24:48;;;;;;;8.38;2.33;;;;;;;31.80;28.83;100433.48;1768906;79;21088;-75
2021/07/07 11:27:16;;;;;;;15.00;2.30;;;;;;;31.93;29.12;100425.51;1754265;79;21067;-77
2021/07/07 11:29:45;;;;;;;12.25;2.58;;;;;;;31.84;29.57;100422.55;1769809;79;21057;-76
2021/07/07 11:32:36;;;;;;;6.85;2.25;;;;;;;31.51;29.78;100428.34;1776573;79;21049;-77